Time;durP1;ratioP1;P1;durP2;ratioP2;P2;SDS_P1;SDS_P2;PMS_P1;PMS_P2;Temp;Humidity;BMP_temperature;BMP_pressure;BME280_temperature;BME280_humidity;BME280_pressure;Samples;Min_cycle;Max_cycle;Signal;HPM_P1;HPM_P2
2022/03/06 00:02:05;;;;;;;20.63;10.70;;;;;;;-1.89;80.35;96421.06;5016833;28;20475;-87
2022/03/06 00:04:32;;;;;;;14.63;8.70;;;;;;;-1.94;80.49;96421.31;5049255;28;20494;-88
2022/03/06 00:06:58;;;;;;;17.83;9.43;;;;;;;-2.00;80.50;96416.47;5044749;28;21004;-88
2022/03/06 00:09:25;;;;;;;16.67;8.67;;;;;;;-1.98;81.52;96429.25;5036801;28;20604;-87
2022/03/06 00:11:54;;;;;;;17.67;10.27;;;;;;;-2.02;81.64;96420.84;5033045;28;20459;-88
2022/03/06 00:14:20;;;;;;;16.53;9.17;;;;;;;-2.04;82.33;96430.41;5027986;28;20459;-88
2022/03/06 00:16:47;;;;;;;20.53;10.67;;;;;;;-2.21;83.21;96427.84;5040114;28;20502;-88
2022/03/06 00:19:21;;;;;;;16.60;9.20;;;;;;;-2.28;84.97;96429.91;5018104;28;20464;-88
2022/03/06 00:22:19;;;;;;;20.20;10.43;;;;;;;-2.33;85.80;96424.13;5050222;28;20539;-88
2022/03/06 00:24:46;;;;;;;19.77;10.00;;;;;;;-2.36;85.98;96421.72;5043942;28;20571;-87
2022/03/06 00:27:12;;;;;;;18.03;9.53;;;;;;;-2.31;86.53;96427.47;5047962;28;20986;-88
2022/03/06 00:29:39;;;;;;;17.57;9.43;;;;;;;-2.38;86.21;96426.94;5031761;28;20456;-88
2022/03/06 00:32:29;;;;;;;16.70;9.13;;;;;;;-2.33;86.47;96433.59;5045163;28;20033;-88
2022/03/06 00:34:56;;;;;;;19.77;10.50;;;;;;;-2.48;86.85;96438.59;5045907;28;20539;-88
2022/03/06 00:37:23;;;;;;;18.73;10.83;;;;;;;-2.51;87.93;96441.31;5032612;28;20577;-88
2022/03/06 00:39:49;;;;;;;19.93;10.00;;;;;;;-2.51;88.81;96443.06;5024687;28;20083;-87
2022/03/06 00:42:16;;;;;;;18.90;10.17;;;;;;;-2.57;88.63;96440.78;5044951;28;20540;-87
2022/03/06 00:44:48;;;;;;;21.17;10.37;;;;;;;-2.59;88.53;96447.75;5030538;28;20476;-88
2022/03/06 00:47:14;;;;;;;22.80;10.77;;;;;;;-2.65;89.37;96444.56;5047660;28;20528;-88
2022/03/06 00:49:42;;;;;;;20.10;10.70;;;;;;;-2.56;89.70;96450.19;5043605;28;20464;-87
2022/03/06 00:52:08;;;;;;;17.80;9.23;;;;;;;-2.62;89.32;96456.44;5013696;28;20491;-87
2022/03/06 00:54:42;;;;;;;18.00;9.90;;;;;;;-2.63;90.36;96455.63;5024754;28;20033;-87
2022/03/06 00:57:09;;;;;;;19.73;10.83;;;;;;;-2.67;90.44;96450.69;5040048;28;20272;-88
2022/03/06 00:59:35;;;;;;;19.53;10.23;;;;;;;-2.67;90.52;96451.53;5055957;28;20451;-88
2022/03/06 01:02:03;;;;;;;21.17;10.07;;;;;;;-2.67;89.90;96448.94;5037559;28;20504;-87
2022/03/06 01:04:29;;;;;;;17.10;8.47;;;;;;;-2.63;90.24;96447.06;5047823;28;20528;-86
2022/03/06 01:06:56;;;;;;;20.33;11.17;;;;;;;-2.71;89.97;96450.00;5042798;28;20514;-88
2022/03/06 01:09:23;;;;;;;19.03;9.87;;;;;;;-2.76;90.03;96451.13;5055546;28;20037;-87
2022/03/06 01:11:49;;;;;;;19.53;10.47;;;;;;;-2.75;90.64;96451.06;5029855;28;20475;-87
2022/03/06 01:14:15;;;;;;;18.63;8.87;;;;;;;-2.86;91.67;96456.69;5032467;28;20472;-87
2022/03/06 01:16:43;;;;;;;19.60;10.37;;;;;;;-2.81;91.50;96453.09;5042257;28;20053;-87
2022/03/06 01:19:09;;;;;;;16.83;8.87;;;;;;;-2.82;91.72;96452.22;5048968;28;20471;-87
2022/03/06 01:21:41;;;;;;;18.63;8.70;;;;;;;-2.76;91.42;96448.56;5023921;28;20467;-87
2022/03/06 01:24:23;;;;;;;19.60;9.83;;;;;;;-2.81;91.29;96443.63;5035177;28;20512;-87
2022/03/06 01:26:49;;;;;;;19.23;9.90;;;;;;;-2.82;92.03;96443.69;5053734;28;20484;-87
2022/03/06 01:29:18;;;;;;;21.03;9.87;;;;;;;-2.76;92.23;96439.09;5029333;28;21024;-87
2022/03/06 01:31:44;;;;;;;18.40;8.47;;;;;;;-2.91;92.86;96442.41;5033070;28;20459;-87
2022/03/06 01:34:11;;;;;;;17.17;9.27;;;;;;;-2.88;93.57;96444.84;5043799;28;20466;-87
2022/03/06 01:36:37;;;;;;;18.93;9.23;;;;;;;-2.89;92.71;96443.13;5029064;28;20033;-85
2022/03/06 01:39:17;;;;;;;20.00;10.85;;;;;;;-2.92;92.90;96441.56;5032642;28;20632;-87
2022/03/06 01:41:46;;;;;;;17.83;9.53;;;;;;;-3.00;93.56;96441.06;5028990;28;20033;-87
2022/03/06 01:44:16;;;;;;;18.73;10.10;;;;;;;-3.03;94.06;96440.38;5040632;28;20510;-87
2022/03/06 01:46:49;;;;;;;17.63;9.83;;;;;;;-3.06;94.32;96438.78;5050450;28;20464;-87
2022/03/06 01:49:16;;;;;;;20.23;11.20;;;;;;;-3.07;95.01;96439.69;5052218;28;21024;-87
2022/03/06 01:51:44;;;;;;;19.60;9.73;;;;;;;-3.10;94.72;96437.25;5030684;28;20060;-87
2022/03/06 01:54:41;;;;;;;20.07;11.07;;;;;;;-3.16;95.70;96430.66;5051791;28;20571;-87
2022/03/06 01:57:08;;;;;;;19.43;10.53;;;;;;;-3.14;95.86;96433.16;5049490;28;20816;-88
2022/03/06 01:59:37;;;;;;;19.33;9.70;;;;;;;-3.13;96.27;96438.22;5026803;28;20456;-88
2022/03/06 02:02:07;;;;;;;19.17;10.37;;;;;;;-3.12;96.08;96434.78;5049377;28;20483;-87
2022/03/06 02:04:35;;;;;;;17.30;10.30;;;;;;;-3.16;95.73;96440.13;5026891;28;20467;-87
2022/03/06 02:07:01;;;;;;;18.77;10.13;;;;;;;-3.17;96.27;96434.13;5031903;28;20924;-87
2022/03/06 02:09:28;;;;;;;20.53;10.53;;;;;;;-3.18;96.50;96435.06;5024504;28;20037;-87
2022/03/06 02:14:47;;;;;;;19.87;11.03;;;;;;;-3.24;96.47;96432.75;5049858;28;20507;-88
2022/03/06 02:17:13;;;;;;;18.33;9.93;;;;;;;-3.25;96.90;96428.53;5038115;28;20475;-88
2022/03/06 02:20:00;;;;;;;18.87;10.47;;;;;;;-3.28;96.32;96433.81;5049361;28;20451;-87
2022/03/06 02:22:40;;;;;;;18.27;9.90;;;;;;;-3.32;96.67;96432.25;5055285;28;20055;-88
2022/03/06 02:25:17;;;;;;;21.20;11.07;;;;;;;-3.32;96.78;96437.41;5062428;28;20503;-87
2022/03/06 02:27:48;;;;;;;18.53;9.67;;;;;;;-3.41;96.17;96428.38;5034853;28;21005;-87
2022/03/06 02:30:25;;;;;;;20.43;9.87;;;;;;;-3.50;97.12;96431.38;5033274;28;20487;-87
2022/03/06 02:33:03;;;;;;;19.97;9.80;;;;;;;-3.54;97.76;96431.56;5032392;28;20520;-88
2022/03/06 02:35:31;;;;;;;22.13;11.33;;;;;;;-3.54;98.32;96436.72;5029415;28;20556;-88
2022/03/06 02:38:10;;;;;;;19.53;10.57;;;;;;;-3.54;98.37;96434.16;5035120;28;21023;-88
2022/03/06 02:40:44;;;;;;;21.30;11.27;;;;;;;-3.54;98.39;96439.28;5029369;28;20459;-87
2022/03/06 02:43:37;;;;;;;19.63;10.30;;;;;;;-3.59;99.29;96427.47;5045858;28;20514;-88
2022/03/06 02:46:03;;;;;;;17.70;10.23;;;;;;;-3.55;98.83;96430.75;5019459;28;20472;-87
2022/03/06 02:48:32;;;;;;;19.75;10.18;;;;;;;-3.67;99.22;96426.97;5036068;28;20040;-87
2022/03/06 02:50:58;;;;;;;21.60;10.93;;;;;;;-3.68;99.52;96430.44;5033075;28;20029;-88
2022/03/06 02:53:49;;;;;;;19.33;10.97;;;;;;;-3.75;100.00;96428.22;5052842;28;21089;-87
2022/03/06 02:56:15;;;;;;;20.80;11.07;;;;;;;-3.73;100.00;96434.13;5049619;28;20501;-86
2022/03/06 02:58:46;;;;;;;24.70;11.10;;;;;;;-3.74;100.00;96433.28;5049040;28;20017;-87
2022/03/06 03:01:13;;;;;;;19.50;10.77;;;;;;;-3.71;100.00;96429.75;5034805;28;20150;-87
2022/03/06 03:03:39;;;;;;;21.90;11.32;;;;;;;-3.69;100.00;96428.78;5063118;28;20120;-87
2022/03/06 03:06:10;;;;;;;22.33;11.07;;;;;;;-3.67;100.00;96426.97;5033285;28;20475;-86
2022/03/06 03:08:37;;;;;;;19.85;10.57;;;;;;;-3.65;100.00;96434.63;5044643;28;20087;-86
2022/03/06 03:11:05;;;;;;;19.57;10.97;;;;;;;-3.70;100.00;96433.97;5024866;28;20164;-86
2022/03/06 03:13:31;;;;;;;18.67;10.25;;;;;;;-3.70;100.00;96432.25;5034608;28;20091;-87
2022/03/06 03:16:00;;;;;;;17.93;9.97;;;;;;;-3.71;100.00;96434.91;5029075;28;20041;-86
2022/03/06 03:18:26;;;;;;;20.02;10.02;;;;;;;-3.77;100.00;96441.13;5034939;28;20395;-87
2022/03/06 03:20:58;;;;;;;21.02;10.70;;;;;;;-3.80;100.00;96438.69;5035485;28;20036;-86
2022/03/06 03:23:24;;;;;;;22.15;11.88;;;;;;;-3.80;100.00;96436.13;5031710;28;20124;-87
2022/03/06 03:25:56;;;;;;;24.20;11.73;;;;;;;-3.90;100.00;96435.69;5045026;28;20405;-86
2022/03/06 03:28:22;;;;;;;20.55;11.02;;;;;;;-3.91;100.00;96430.63;5034391;28;20037;-87
2022/03/06 03:30:57;;;;;;;24.45;11.80;;;;;;;-3.90;100.00;96432.28;5049077;28;20083;-87
2022/03/06 03:33:24;;;;;;;21.23;11.45;;;;;;;-3.93;100.00;96434.97;5036249;28;20098;-85
2022/03/06 03:35:50;;;;;;;20.80;10.40;;;;;;;-3.88;100.00;96433.88;5012635;28;20049;-86
2022/03/06 03:38:24;;;;;;;21.57;11.17;;;;;;;-3.97;100.00;96438.59;5046198;28;20037;-86
2022/03/06 03:40:50;;;;;;;21.65;10.73;;;;;;;-4.07;100.00;96436.41;5030756;28;20128;-87
2022/03/06 03:43:18;;;;;;;17.77;9.80;;;;;;;-4.08;100.00;96442.44;5043818;28;20033;-86
2022/03/06 03:45:54;;;;;;;19.50;10.88;;;;;;;-4.08;100.00;96442.44;5030800;28;20033;-87
2022/03/06 03:48:21;;;;;;;24.95;11.85;;;;;;;-3.97;100.00;96443.72;5035685;28;20041;-86
2022/03/06 03:51:01;;;;;;;22.40;11.32;;;;;;;-3.98;100.00;96442.06;5024325;28;20087;-87
2022/03/06 03:53:29;;;;;;;20.65;11.52;;;;;;;-3.95;100.00;96457.34;5024551;28;20099;-86
2022/03/06 03:56:12;;;;;;;19.50;10.85;;;;;;;-3.94;100.00;96446.16;5028721;28;20068;-86
2022/03/06 03:58:38;;;;;;;16.73;7.95;;;;;;;-3.98;100.00;96462.63;5046487;28;20068;-87
2022/03/06 04:01:04;;;;;;;24.13;10.83;;;;;;;-4.01;100.00;96457.59;5029438;28;20048;-87
2022/03/06 04:03:34;;;;;;;23.67;11.95;;;;;;;-4.00;100.00;96456.69;5035216;28;20040;-87
2022/03/06 04:06:00;;;;;;;22.33;12.00;;;;;;;-4.06;100.00;96443.22;5032112;28;20060;-86
2022/03/06 04:08:41;;;;;;;21.10;11.75;;;;;;;-4.07;100.00;96459.53;5022614;28;20040;-87
2022/03/06 04:11:07;;;;;;;23.55;11.02;;;;;;;-4.02;100.00;96451.63;5035679;28;20033;-86
2022/03/06 04:13:33;;;;;;;23.17;12.17;;;;;;;-4.03;100.00;96455.91;5036272;28;20060;-87
2022/03/06 04:15:59;;;;;;;20.77;11.47;;;;;;;-4.08;100.00;96459.59;5046495;28;20038;-87
2022/03/06 04:18:25;;;;;;;19.92;11.52;;;;;;;-4.08;100.00;96463.00;5033716;28;20030;-87
2022/03/06 04:20:51;;;;;;;23.57;11.13;;;;;;;-4.09;100.00;96458.78;5044967;28;20128;-87
2022/03/06 04:23:20;;;;;;;20.97;11.93;;;;;;;-4.14;100.00;96460.69;5050796;28;20033;-86
2022/03/06 04:25:46;;;;;;;22.73;11.93;;;;;;;-4.11;100.00;96464.88;5027977;28;20033;-87
2022/03/06 04:28:14;;;;;;;24.83;12.75;;;;;;;-4.17;100.00;96468.50;5031634;28;20041;-87
2022/03/06 04:30:39;;;;;;;22.33;12.50;;;;;;;-4.15;100.00;96471.88;5038908;28;20099;-87
2022/03/06 04:33:05;;;;;;;21.20;12.03;;;;;;;-4.22;100.00;96473.03;5040208;28;20113;-87
2022/03/06 04:35:32;;;;;;;24.40;12.27;;;;;;;-4.26;100.00;96484.28;5033208;28;20040;-86
2022/03/06 04:38:11;;;;;;;21.15;11.55;;;;;;;-4.28;100.00;96475.84;5022826;28;20036;-86
2022/03/06 04:40:39;;;;;;;23.80;11.95;;;;;;;-4.26;100.00;96484.28;5033413;28;20075;-87
2022/03/06 04:43:05;;;;;;;21.87;10.70;;;;;;;-4.26;100.00;96481.72;5048124;28;20041;-87
2022/03/06 04:45:34;;;;;;;20.50;11.57;;;;;;;-4.20;100.00;96489.19;5027871;28;20107;-87
2022/03/06 04:48:00;;;;;;;22.58;11.15;;;;;;;-4.18;100.00;96489.13;5033708;28;20048;-87
2022/03/06 04:50:27;;;;;;;23.35;11.38;;;;;;;-4.29;100.00;96487.00;5025365;28;20033;-87
2022/03/06 04:52:53;;;;;;;21.88;11.45;;;;;;;-4.32;100.00;96485.41;5031095;28;20021;-87
2022/03/06 04:55:19;;;;;;;23.40;12.57;;;;;;;-4.28;100.00;96493.81;5032367;28;20495;-88
2022/03/06 04:57:47;;;;;;;23.08;11.75;;;;;;;-4.32;100.00;96492.28;5023462;28;20108;-87
2022/03/06 05:00:15;;;;;;;24.33;11.70;;;;;;;-4.32;100.00;96494.84;5029418;28;20094;-86
2022/03/06 05:02:41;;;;;;;24.27;12.48;;;;;;;-4.40;100.00;96491.72;5041556;28;20017;-87
2022/03/06 05:05:07;;;;;;;23.50;11.93;;;;;;;-4.42;100.00;96494.38;5026696;28;20517;-87
2022/03/06 05:07:33;;;;;;;24.15;11.98;;;;;;;-4.51;100.00;96505.81;5029150;28;20448;-86
2022/03/06 05:13:15;;;;;;;23.48;11.52;;;;;;;-4.45;100.00;96501.34;5050482;28;20033;-86
2022/03/06 05:15:41;;;;;;;24.40;11.80;;;;;;;-4.41;100.00;96508.03;5029076;28;20086;-87
2022/03/06 05:18:07;;;;;;;25.87;11.67;;;;;;;-4.48;100.00;96501.47;5049437;28;20115;-86
2022/03/06 05:20:40;;;;;;;23.17;12.32;;;;;;;-4.43;100.00;96502.13;5052780;28;20025;-86
2022/03/06 05:23:06;;;;;;;23.33;12.15;;;;;;;-4.48;100.00;96504.03;5037056;28;20240;-86
2022/03/06 05:25:35;;;;;;;23.10;10.70;;;;;;;-4.52;100.00;96498.19;5031393;28;20479;-86
2022/03/06 05:28:01;;;;;;;23.80;11.93;;;;;;;-4.52;100.00;96496.47;5031061;28;20041;-86
2022/03/06 05:30:30;;;;;;;24.17;13.03;;;;;;;-4.52;100.00;96498.19;5036978;28;20040;-86
2022/03/06 05:32:57;;;;;;;23.52;12.07;;;;;;;-4.48;100.00;96506.63;5040935;28;20462;-86
2022/03/06 05:35:23;;;;;;;23.13;10.77;;;;;;;-4.48;100.00;96506.63;5045852;28;20037;-86
2022/03/06 05:37:49;;;;;;;23.43;11.73;;;;;;;-4.51;100.00;96505.81;5023744;28;20553;-87
2022/03/06 05:40:15;;;;;;;24.52;12.63;;;;;;;-4.46;100.00;96508.22;5023058;28;20033;-87
2022/03/06 05:42:42;;;;;;;23.77;11.82;;;;;;;-4.44;100.00;96505.59;5037319;28;20435;-87
2022/03/06 05:45:09;;;;;;;24.27;12.87;;;;;;;-4.47;100.00;96511.66;5031801;28;20037;-87
2022/03/06 05:47:35;;;;;;;21.50;11.57;;;;;;;-4.50;100.00;96512.63;5029466;28;20043;-87
2022/03/06 05:50:05;;;;;;;23.80;12.97;;;;;;;-4.43;100.00;96517.50;5038681;28;20045;-87
2022/03/06 05:52:50;;;;;;;23.83;11.48;;;;;;;-4.41;100.00;96520.88;5025041;28;20455;-87
2022/03/06 05:55:17;;;;;;;22.35;11.52;;;;;;;-4.42;100.00;96520.03;5052213;28;20381;-87
2022/03/06 05:57:44;;;;;;;22.73;12.10;;;;;;;-4.41;100.00;96520.88;5053496;28;20032;-86
2022/03/06 06:00:13;;;;;;;22.33;11.52;;;;;;;-4.40;100.00;96522.53;5027041;28;20526;-87
2022/03/06 06:02:39;;;;;;;21.05;11.80;;;;;;;-4.39;100.00;96522.50;5033017;28;20132;-87
2022/03/06 06:05:08;;;;;;;23.95;11.32;;;;;;;-4.37;100.00;96522.41;5038977;28;20037;-87
2022/03/06 06:07:41;;;;;;;22.85;11.57;;;;;;;-4.44;100.00;96529.53;5037019;28;20082;-87
2022/03/06 06:10:08;;;;;;;19.80;11.65;;;;;;;-4.42;100.00;96530.31;5039761;28;20491;-87
2022/03/06 06:12:34;;;;;;;22.27;12.75;;;;;;;-4.32;100.00;96529.03;5049215;28;20112;-86
2022/03/06 06:15:05;;;;;;;20.37;11.10;;;;;;;-4.18;100.00;96525.91;5032750;28;20106;-87
2022/03/06 06:17:31;;;;;;;22.95;12.23;;;;;;;-4.05;100.00;96531.41;5040893;28;20032;-86
2022/03/06 06:19:59;;;;;;;22.23;12.03;;;;;;;-3.88;100.00;96530.69;5039146;28;20502;-87
2022/03/06 06:22:31;;;;;;;24.88;11.43;;;;;;;-3.80;100.00;96537.16;5021455;28;20037;-86
2022/03/06 06:24:58;;;;;;;21.25;12.02;;;;;;;-3.69;100.00;96538.44;5044208;28;20043;-86
2022/03/06 06:27:25;;;;;;;26.95;13.70;;;;;;;-3.44;100.00;96530.53;5033110;28;20501;-87
2022/03/06 06:29:53;;;;;;;26.50;13.13;;;;;;;-3.43;100.00;96527.06;5039572;28;20038;-87
2022/03/06 06:32:19;;;;;;;24.48;13.25;;;;;;;-3.44;100.00;96530.53;5021980;28;20037;-87
2022/03/06 06:34:46;;;;;;;25.67;13.95;;;;;;;-3.37;100.00;96540.47;5027523;28;20037;-87
2022/03/06 06:37:15;;;;;;;22.05;12.48;;;;;;;-3.12;100.00;96529.97;5022145;28;20080;-87
2022/03/06 06:40:03;;;;;;;24.50;12.73;;;;;;;-3.13;100.00;96535.16;5034522;28;20498;-87
2022/03/06 06:42:29;;;;;;;20.27;11.57;;;;;;;-3.01;100.00;96524.31;5041417;28;20025;-86
2022/03/06 06:44:59;;;;;;;22.30;11.25;;;;;;;-2.70;100.00;96531.47;5045870;28;20036;-87
2022/03/06 06:47:31;;;;;;;20.48;10.65;;;;;;;-2.66;100.00;96530.41;5034162;28;20036;-86
2022/03/06 06:50:08;;;;;;;21.65;11.02;;;;;;;-2.47;100.00;96535.53;5030607;28;20037;-86
2022/03/06 06:52:35;;;;;;;20.00;12.05;;;;;;;-2.27;99.94;96529.44;5048317;28;20032;-87
2022/03/06 06:55:01;;;;;;;21.20;11.03;;;;;;;-2.19;100.00;96529.91;5028225;28;20044;-87
2022/03/06 06:57:27;;;;;;;21.43;12.37;;;;;;;-1.95;98.32;96529.59;5032551;28;20439;-86
2022/03/06 07:00:02;;;;;;;21.15;12.05;;;;;;;-1.96;97.80;96528.78;5048367;28;20458;-86
2022/03/06 07:02:29;;;;;;;22.42;11.68;;;;;;;-1.78;98.09;96527.03;5037987;28;20100;-86
2022/03/06 07:04:55;;;;;;;19.37;11.47;;;;;;;-1.82;96.41;96528.09;5034543;28;20044;-87
2022/03/06 07:07:37;;;;;;;21.30;11.70;;;;;;;-1.54;96.22;96531.84;5037927;28;21028;-87
2022/03/06 07:10:05;;;;;;;19.00;11.10;;;;;;;-1.30;92.19;96524.63;5028955;28;20677;-87
2022/03/06 07:12:31;;;;;;;19.40;11.27;;;;;;;-1.44;94.37;96533.91;5032137;28;20436;-87
2022/03/06 07:14:57;;;;;;;19.87;11.47;;;;;;;-1.39;94.14;96533.66;5042061;28;20569;-86
2022/03/06 07:17:24;;;;;;;18.73;11.33;;;;;;;-1.25;93.13;96543.28;5047582;28;20488;-87
2022/03/06 07:19:52;;;;;;;21.93;12.27;;;;;;;-1.28;93.32;96541.69;5065297;28;20037;-86
2022/03/06 07:22:26;;;;;;;23.67;12.50;;;;;;;-1.14;91.58;96542.72;5036585;28;20480;-85
2022/03/06 07:24:58;;;;;;;;;;;;;;;-1.02;90.61;96537.75;5047615;28;20601;-87
2022/03/06 07:27:26;;;;;;;21.93;11.17;;;;;;;-0.93;90.62;96539.03;5036429;28;19917;-87
2022/03/06 07:29:52;;;;;;;20.03;10.87;;;;;;;-0.82;90.78;96539.28;5031041;28;20475;-87
2022/03/06 07:32:27;;;;;;;21.37;10.93;;;;;;;-0.76;89.49;96545.88;5036804;28;20471;-87
2022/03/06 07:34:54;;;;;;;19.43;11.00;;;;;;;-0.43;87.68;96545.78;5034238;28;20451;-87
2022/03/06 07:37:26;;;;;;;25.60;14.23;;;;;;;-0.69;89.58;96544.63;5026955;28;21151;-87
2022/03/06 07:39:52;;;;;;;28.50;15.93;;;;;;;0.01;86.66;96539.06;5020825;28;20483;-87
2022/03/06 07:43:07;;;;;;;23.47;12.57;;;;;;;-0.32;85.53;96542.59;5034972;28;20478;-87
2022/03/06 07:46:18;;;;;;;23.47;13.17;;;;;;;-0.24;85.14;96546.41;4978829;28;20121;-83
2022/03/06 07:49:10;;;;;;;19.97;11.30;;;;;;;0.05;84.55;96546.53;5043528;28;20513;-83
2022/03/06 07:51:39;;;;;;;19.37;12.13;;;;;;;0.34;82.12;96544.06;5040906;28;20866;-82
2022/03/06 07:57:57;;;;;;;19.20;11.00;;;;;;;0.47;81.07;96547.59;5044989;28;21003;-83
2022/03/06 08:01:02;;;;;;;21.03;11.03;;;;;;;0.81;78.79;96545.59;5039690;28;20487;-83
2022/03/06 08:03:34;;;;;;;;;;;;;;;0.85;76.87;96554.84;5025780;28;20864;-82
2022/03/06 08:06:00;;;;;;;19.63;10.70;;;;;;;1.50;74.51;96554.31;5031303;28;19927;-83
2022/03/06 08:08:26;;;;;;;19.03;10.93;;;;;;;2.19;70.82;96550.75;5031215;28;20617;-82
2022/03/06 08:10:52;;;;;;;20.07;10.90;;;;;;;2.32;69.36;96548.22;5044171;28;20535;-83
2022/03/06 08:13:18;;;;;;;17.97;11.30;;;;;;;1.61;72.04;96551.88;5050220;28;20025;-84
2022/03/06 08:16:38;;;;;;;18.90;10.87;;;;;;;2.63;70.62;96540.97;5027147;28;20037;-83
2022/03/06 08:19:46;;;;;;;19.30;11.87;;;;;;;2.44;65.99;96549.97;5048735;28;20044;-84
2022/03/06 08:22:15;;;;;;;20.25;11.85;;;;;;;3.04;65.06;96544.19;5032107;28;20494;-83
2022/03/06 08:24:49;;;;;;;20.10;10.67;;;;;;;2.63;67.70;96548.75;5026906;28;20503;-83
2022/03/06 08:27:18;;;;;;;17.70;11.03;;;;;;;2.24;66.65;96547.84;5031215;28;21259;-83
2022/03/06 08:29:48;;;;;;;19.90;12.57;;;;;;;2.19;67.44;96549.94;5040693;28;20465;-84
2022/03/06 08:32:23;;;;;;;20.47;11.30;;;;;;;3.37;63.65;96542.78;5026132;28;20468;-83
2022/03/06 08:34:51;;;;;;;17.97;10.83;;;;;;;2.98;63.95;96548.97;5055294;28;21094;-83
2022/03/06 08:37:24;;;;;;;19.43;11.37;;;;;;;2.90;60.93;96549.50;5032871;28;20452;-84
2022/03/06 08:39:50;;;;;;;17.27;11.02;;;;;;;4.06;59.51;96537.03;5022636;28;20515;-84
2022/03/06 08:42:16;;;;;;;19.37;10.80;;;;;;;3.14;59.54;96541.78;5030309;28;20072;-84
2022/03/06 08:44:42;;;;;;;18.00;11.30;;;;;;;3.98;58.88;96538.41;5027624;28;20112;-83
2022/03/06 08:47:09;;;;;;;18.67;10.63;;;;;;;3.62;59.30;96556.66;5024198;28;20436;-83
2022/03/06 08:49:37;;;;;;;18.17;11.07;;;;;;;3.75;57.86;96554.84;5043971;28;20471;-84
2022/03/06 08:52:07;;;;;;;18.13;10.67;;;;;;;4.04;57.49;96554.53;5045625;28;20459;-83
2022/03/06 08:54:52;;;;;;;17.77;10.37;;;;;;;4.05;56.61;96549.22;5051045;28;20460;-84
2022/03/06 08:57:18;;;;;;;18.97;10.57;;;;;;;4.23;57.36;96545.28;5025544;28;20550;-83
2022/03/06 08:59:44;;;;;;;18.23;10.70;;;;;;;5.28;55.40;96543.47;5036994;28;20451;-83
2022/03/06 09:02:09;;;;;;;18.57;11.03;;;;;;;3.67;57.29;96551.97;5040098;28;20118;-84
2022/03/06 09:04:35;;;;;;;17.93;10.13;;;;;;;3.50;58.13;96546.19;5036553;28;20039;-83
2022/03/06 09:07:01;;;;;;;15.97;10.27;;;;;;;3.97;56.51;96548.94;5047775;28;20032;-83
2022/03/06 09:09:26;;;;;;;16.30;9.87;;;;;;;3.98;55.52;96546.22;5037798;28;20033;-83
2022/03/06 09:11:52;;;;;;;15.63;10.30;;;;;;;4.58;54.01;96533.19;5031271;28;20025;-83
2022/03/06 09:14:18;;;;;;;17.03;10.50;;;;;;;4.45;53.33;96539.31;5052027;28;20086;-83
2022/03/06 09:16:46;;;;;;;17.60;10.33;;;;;;;3.97;53.80;96533.34;5033338;28;20048;-83
2022/03/06 09:19:11;;;;;;;19.23;11.73;;;;;;;4.99;53.73;96530.03;5034754;28;20029;-83
2022/03/06 09:21:43;;;;;;;18.23;10.97;;;;;;;5.40;51.17;96532.06;5034287;28;20557;-83
2022/03/06 09:24:10;;;;;;;15.57;9.50;;;;;;;5.58;49.87;96534.19;5045351;28;20041;-84
2022/03/06 09:26:36;;;;;;;16.90;9.73;;;;;;;5.79;48.40;96522.03;5050393;28;20029;-84
2022/03/06 09:29:05;;;;;;;14.37;8.87;;;;;;;5.18;49.23;96529.47;5037287;28;20495;-83
2022/03/06 09:31:31;;;;;;;15.70;9.23;;;;;;;5.36;48.81;96520.22;5043955;28;20031;-83
2022/03/06 09:34:05;;;;;;;15.37;9.40;;;;;;;5.94;47.45;96521.81;5055119;28;20440;-83
2022/03/06 09:36:31;;;;;;;18.50;10.00;;;;;;;5.44;47.86;96522.22;5038606;28;20035;-83
2022/03/06 09:38:57;;;;;;;14.90;9.30;;;;;;;6.47;46.30;96519.19;5029352;28;20033;-83
2022/03/06 09:41:26;;;;;;;15.13;9.03;;;;;;;7.01;44.66;96515.56;5027762;28;20103;-83
2022/03/06 09:43:56;;;;;;;13.27;8.23;;;;;;;6.28;44.91;96528.56;5036340;28;20021;-83
2022/03/06 09:46:22;;;;;;;17.03;9.37;;;;;;;5.32;46.22;96534.44;5032831;28;20511;-83
2022/03/06 09:48:49;;;;;;;13.90;9.53;;;;;;;5.77;46.43;96523.97;5036903;28;20044;-82
2022/03/06 09:51:14;;;;;;;15.90;9.73;;;;;;;7.20;43.52;96523.47;5061231;28;20040;-83
2022/03/06 09:53:40;;;;;;;15.07;9.80;;;;;;;4.53;46.59;96536.16;5032030;28;20484;-82
2022/03/06 09:56:09;;;;;;;13.57;8.87;;;;;;;6.10;44.82;96523.06;5030272;28;20549;-82
2022/03/06 09:58:35;;;;;;;16.00;9.47;;;;;;;6.89;43.07;96516.59;5048008;28;20021;-82
2022/03/06 10:01:00;;;;;;;14.47;8.13;;;;;;;7.91;41.16;96515.53;5005300;28;20186;-82
2022/03/06 10:03:27;;;;;;;15.57;8.83;;;;;;;7.64;39.86;96515.34;5032887;28;20033;-83
2022/03/06 10:05:53;;;;;;;12.93;8.53;;;;;;;7.18;41.27;96508.88;5031140;28;20055;-83
2022/03/06 10:08:25;;;;;;;16.20;8.97;;;;;;;8.19;39.10;96505.25;5036737;28;20032;-83
2022/03/06 10:11:12;;;;;;;15.90;9.60;;;;;;;8.15;40.31;96517.78;5049778;28;20033;-83
2022/03/06 10:13:43;;;;;;;16.40;10.33;;;;;;;5.91;43.72;96515.03;5042696;28;20033;-83
2022/03/06 10:16:17;;;;;;;13.83;8.60;;;;;;;5.16;43.41;96519.19;5029519;28;20060;-83
2022/03/06 10:18:52;;;;;;;14.55;8.60;;;;;;;4.20;46.25;96529.06;5035136;28;20116;-82
2022/03/06 10:21:26;;;;;;;13.27;8.87;;;;;;;3.20;48.80;96532.75;5035852;28;20040;-84
2022/03/06 10:24:05;;;;;;;15.93;9.13;;;;;;;3.58;47.36;96537.00;5049693;28;20411;-82
2022/03/06 10:26:32;;;;;;;14.40;8.70;;;;;;;3.62;46.10;96533.25;5045155;28;20090;-83
2022/03/06 10:29:09;;;;;;;13.30;7.77;;;;;;;3.31;44.55;96538.00;5048544;28;21208;-83
2022/03/06 10:32:04;;;;;;;15.03;7.40;;;;;;;3.49;45.31;96543.72;5047758;28;20468;-83
2022/03/06 10:34:40;;;;;;;12.50;7.47;;;;;;;2.54;47.46;96548.44;5028193;28;20878;-83
2022/03/06 10:37:13;;;;;;;14.07;7.80;;;;;;;2.81;47.55;96534.53;5045660;28;20482;-84
2022/03/06 10:39:46;;;;;;;11.23;6.85;;;;;;;2.97;47.10;96529.94;5033030;28;20483;-83
2022/03/06 10:42:21;;;;;;;14.95;8.77;;;;;;;2.89;48.16;96540.06;5019203;28;20069;-83
2022/03/06 10:44:48;;;;;;;13.63;7.90;;;;;;;2.80;47.70;96531.09;5045452;28;20061;-83
2022/03/06 10:47:19;;;;;;;14.43;8.40;;;;;;;3.00;48.51;96537.53;5031856;28;20475;-83
2022/03/06 10:50:05;;;;;;;14.68;9.00;;;;;;;3.28;47.21;96525.22;5048737;28;20479;-83
2022/03/06 10:52:42;;;;;;;15.97;8.80;;;;;;;3.77;48.22;96529.56;5038052;28;20042;-83
2022/03/06 10:55:09;;;;;;;14.53;8.63;;;;;;;4.07;46.41;96528.28;5016812;28;21047;-83
2022/03/06 10:57:39;;;;;;;14.57;8.43;;;;;;;4.28;45.98;96531.91;5065787;28;20462;-83
2022/03/06 11:00:15;;;;;;;14.67;8.97;;;;;;;4.05;46.17;96540.56;5063202;28;20475;-83
2022/03/06 11:02:45;;;;;;;13.87;8.97;;;;;;;4.08;44.88;96535.16;5044972;28;20811;-83
2022/03/06 11:05:11;;;;;;;16.50;8.83;;;;;;;4.04;44.43;96529.34;5055875;28;20079;-83
2022/03/06 11:07:37;;;;;;;16.37;9.40;;;;;;;3.82;44.87;96537.84;5028308;28;20518;-83
2022/03/06 11:10:03;;;;;;;13.93;8.10;;;;;;;3.13;45.68;96536.69;5050936;28;20459;-83
2022/03/06 11:12:29;;;;;;;15.93;8.43;;;;;;;5.22;42.54;96517.03;5021120;28;20025;-83
2022/03/06 11:14:56;;;;;;;15.90;8.93;;;;;;;5.78;40.55;96509.94;5040234;28;20067;-83
2022/03/06 11:17:30;;;;;;;15.47;8.67;;;;;;;5.42;41.76;96519.72;5033497;28;20460;-83
2022/03/06 11:19:56;;;;;;;13.10;8.37;;;;;;;5.04;41.91;96527.94;5060557;28;21221;-83
2022/03/06 11:22:36;;;;;;;14.73;9.13;;;;;;;4.85;42.91;96523.28;5048561;28;20029;-84
2022/03/06 11:25:17;;;;;;;15.63;8.70;;;;;;;4.30;43.33;96522.22;5047751;28;20033;-84
2022/03/06 11:27:49;;;;;;;16.30;8.47;;;;;;;3.81;44.03;96530.19;5049902;28;20475;-84
2022/03/06 11:30:20;;;;;;;13.93;8.60;;;;;;;4.85;52.00;96515.47;5033512;28;21609;-84
2022/03/06 11:33:09;;;;;;;14.83;8.67;;;;;;;3.78;44.99;96520.81;5043241;28;20432;-83
2022/03/06 11:35:43;;;;;;;14.10;8.57;;;;;;;3.96;45.58;96526.47;5029823;28;20464;-83
2022/03/06 11:38:13;;;;;;;16.80;10.00;;;;;;;4.03;45.45;96524.25;5043572;28;20484;-83
2022/03/06 11:40:50;;;;;;;14.20;8.43;;;;;;;3.42;45.48;96527.72;5034043;28;20471;-83
2022/03/06 11:43:50;;;;;;;15.27;8.53;;;;;;;3.53;45.80;96526.94;5024580;28;20882;-83
2022/03/06 11:46:26;;;;;;;13.77;8.50;;;;;;;3.58;46.22;96535.25;5024368;28;20548;-82